Time;durP1;ratioP1;P1;durP2;ratioP2;P2;SDS_P1;SDS_P2;PMS_P1;PMS_P2;Temp;Humidity;BMP_temperature;BMP_pressure;BME280_temperature;BME280_humidity;BME280_pressure;Samples;Min_cycle;Max_cycle;Signal;HPM_P1;HPM_P2
2023/01/26 00:01:32;;;;;;;2.25;1.33;;;;;;;;;;5013989;28;20050;-39
2023/01/26 00:03:57;;;;;;;8.00;1.88;;;;;;;;;;5013931;28;20030;-39
2023/01/26 00:06:23;;;;;;;4.22;2.25;;;;;;;;;;5014103;28;20018;-39
2023/01/26 00:08:50;;;;;;;4.78;2.55;;;;;;;;;;5013978;28;20053;-39
2023/01/26 00:11:16;;;;;;;6.32;2.53;;;;;;;;;;5013846;28;20490;-39
2023/01/26 00:13:42;;;;;;;3.80;2.42;;;;;;;;;;5013939;28;20033;-39
2023/01/26 00:16:09;;;;;;;4.72;2.35;;;;;;;;;;5013787;28;20054;-42
2023/01/26 00:18:36;;;;;;;3.45;2.20;;;;;;;;;;5013591;28;20068;-39
2023/01/26 00:21:01;;;;;;;3.45;1.52;;;;;;;;;;5013609;28;20457;-39
2023/01/26 00:23:27;;;;;;;2.55;1.83;;;;;;;;;;5013514;28;20030;-39
2023/01/26 00:25:53;;;;;;;5.80;2.88;;;;;;;;;;5012461;28;20142;-40
2023/01/26 00:28:18;;;;;;;3.35;1.83;;;;;;;;;;5013870;28;20037;-40
2023/01/26 00:30:44;;;;;;;3.85;1.95;;;;;;;;;;5013369;28;20346;-39
2023/01/26 00:33:09;;;;;;;3.78;2.13;;;;;;;;;;5013410;28;20500;-39
2023/01/26 00:35:34;;;;;;;6.47;3.47;;;;;;;;;;5012008;28;20018;-40
2023/01/26 00:38:01;;;;;;;4.15;2.40;;;;;;;;;;5013563;28;20057;-39
2023/01/26 00:40:26;;;;;;;6.03;2.08;;;;;;;;;;5013489;28;20037;-39
2023/01/26 00:42:53;;;;;;;3.63;2.47;;;;;;;;;;5013295;28;20049;-39
2023/01/26 00:45:21;;;;;;;4.10;2.15;;;;;;;;;;5013174;28;20083;-39
2023/01/26 00:47:47;;;;;;;3.65;1.52;;;;;;;;;;5011905;28;20049;-39
2023/01/26 00:50:12;;;;;;;0.63;0.43;;;;;;;;;;5013460;28;20460;-39
2023/01/26 00:52:37;;;;;;;3.55;2.13;;;;;;;;;;5013044;28;20029;-39
2023/01/26 00:55:03;;;;;;;8.00;2.55;;;;;;;;;;5013221;28;20021;-40
2023/01/26 00:57:28;;;;;;;3.08;1.70;;;;;;;;;;5011733;28;20054;-39
2023/01/26 00:59:55;;;;;;;4.07;2.63;;;;;;;;;;5011953;28;20111;-39
2023/01/26 01:02:23;;;;;;;2.53;1.52;;;;;;;;;;5013429;28;20037;-39
2023/01/26 01:04:48;;;;;;;5.22;3.00;;;;;;;;;;5011736;28;20091;-39
2023/01/26 01:07:14;;;;;;;3.88;2.60;;;;;;;;;;5012984;28;20034;-39
2023/01/26 01:09:39;;;;;;;6.57;1.73;;;;;;;;;;5013119;28;20041;-39
2023/01/26 01:12:04;;;;;;;2.30;0.77;;;;;;;;;;5011697;28;20401;-39
2023/01/26 01:14:30;;;;;;;5.90;2.75;;;;;;;;;;5011489;28;20498;-39
2023/01/26 01:16:57;;;;;;;2.05;1.80;;;;;;;;;;5011667;28;20032;-39
2023/01/26 01:19:22;;;;;;;2.53;1.45;;;;;;;;;;5012834;28;20022;-39
2023/01/26 01:21:47;;;;;;;3.63;1.70;;;;;;;;;;5011357;28;20033;-39
2023/01/26 01:24:13;;;;;;;4.65;2.78;;;;;;;;;;5011371;28;20021;-39
2023/01/26 01:26:38;;;;;;;5.57;2.25;;;;;;;;;;5012897;28;20038;-40
2023/01/26 01:29:04;;;;;;;1.67;1.13;;;;;;;;;;5012688;28;20025;-39
2023/01/26 01:31:30;;;;;;;3.20;2.35;;;;;;;;;;5011257;28;20058;-39
2023/01/26 01:33:55;;;;;;;4.28;2.72;;;;;;;;;;5012618;28;20049;-40
2023/01/26 01:36:21;;;;;;;2.95;1.85;;;;;;;;;;5010949;28;20030;-39
2023/01/26 01:38:49;;;;;;;2.80;1.73;;;;;;;;;;5011248;28;20022;-39
2023/01/26 01:41:16;;;;;;;8.63;1.95;;;;;;;;;;5011142;28;20040;-40
2023/01/26 01:43:42;;;;;;;5.50;2.55;;;;;;;;;;5012531;28;20030;-40
2023/01/26 01:46:16;;;;;;;6.18;2.08;;;;;;;;;;5012577;28;20064;-39
2023/01/26 01:48:46;;;;;;;1.20;1.15;;;;;;;;;;5011002;28;20030;-39
2023/01/26 01:51:33;;;;;;;4.93;2.80;;;;;;;;;;5010930;28;20030;-39
2023/01/26 01:54:01;;;;;;;3.53;2.42;;;;;;;;;;5012307;28;20491;-39
2023/01/26 01:56:28;;;;;;;3.28;2.10;;;;;;;;;;5010671;28;20077;-39
2023/01/26 01:58:56;;;;;;;4.85;3.05;;;;;;;;;;5012396;28;20038;-39
2023/01/26 02:01:22;;;;;;;4.60;2.25;;;;;;;;;;5012128;28;20022;-39
2023/01/26 02:03:49;;;;;;;5.60;2.50;;;;;;;;;;5012219;28;20030;-39
2023/01/26 02:06:18;;;;;;;5.18;1.77;;;;;;;;;;5010693;28;20120;-41
2023/01/26 02:08:46;;;;;;;3.50;2.20;;;;;;;;;;5010684;28;20042;-39
2023/01/26 02:11:21;;;;;;;1.42;1.33;;;;;;;;;;5012229;28;20421;-39
2023/01/26 02:13:48;;;;;;;4.53;2.10;;;;;;;;;;5011871;28;20040;-39
2023/01/26 02:16:13;;;;;;;5.50;2.60;;;;;;;;;;5010654;28;20025;-39
2023/01/26 02:18:39;;;;;;;2.45;2.25;;;;;;;;;;5010496;28;20026;-39
2023/01/26 02:21:06;;;;;;;4.57;2.42;;;;;;;;;;5011760;28;20464;-39
2023/01/26 02:23:31;;;;;;;2.92;1.75;;;;;;;;;;5012068;28;20353;-39
2023/01/26 02:26:04;;;;;;;3.95;2.10;;;;;;;;;;5011598;28;20029;-39
2023/01/26 02:28:29;;;;;;;3.72;1.80;;;;;;;;;;5010447;28;20049;-39
2023/01/26 02:30:55;;;;;;;5.88;2.65;;;;;;;;;;5011716;28;20057;-39
2023/01/26 02:33:23;;;;;;;3.13;1.83;;;;;;;;;;5010397;28;20022;-39
2023/01/26 02:35:48;;;;;;;3.53;2.25;;;;;;;;;;5011664;28;20030;-39
2023/01/26 02:38:14;;;;;;;2.65;2.03;;;;;;;;;;5010432;28;20076;-39
2023/01/26 02:40:52;;;;;;;5.63;2.53;;;;;;;;;;5010161;28;20026;-39
2023/01/26 02:43:17;;;;;;;4.28;2.03;;;;;;;;;;5011714;28;20022;-39
2023/01/26 02:45:43;;;;;;;2.03;1.70;;;;;;;;;;5010101;28;20029;-39
2023/01/26 02:48:08;;;;;;;6.43;3.22;;;;;;;;;;5010251;28;20120;-39
2023/01/26 02:50:34;;;;;;;2.67;1.83;;;;;;;;;;5015170;28;20026;-39
2023/01/26 02:53:00;;;;;;;7.00;2.25;;;;;;;;;;5014303;28;20098;-39
2023/01/26 02:55:27;;;;;;;1.95;1.50;;;;;;;;;;5014098;28;20030;-39
2023/01/26 02:58:01;;;;;;;2.95;1.88;;;;;;;;;;5014055;28;20555;-39
2023/01/26 03:00:35;;;;;;;6.32;2.85;;;;;;;;;;5014021;28;20030;-39
2023/01/26 03:03:06;;;;;;;5.95;3.03;;;;;;;;;;5014090;28;20573;-39
2023/01/26 03:05:31;;;;;;;1.63;1.52;;;;;;;;;;5013988;28;20050;-39
2023/01/26 03:07:57;;;;;;;4.13;2.30;;;;;;;;;;5014054;28;20052;-39
2023/01/26 03:10:28;;;;;;;3.50;2.35;;;;;;;;;;5013861;28;20034;-39
2023/01/26 03:12:54;;;;;;;1.92;1.42;;;;;;;;;;5015209;28;20029;-39
2023/01/26 03:29:01;;;;;;;2.53;1.55;;;;;;;;;;5013732;28;20476;-39
2023/01/26 03:31:26;;;;;;;2.28;1.75;;;;;;;;;;5013468;28;20022;-39
2023/01/26 03:33:52;;;;;;;4.55;1.70;;;;;;;;;;5013560;28;20058;-39
2023/01/26 03:36:18;;;;;;;1.92;1.77;;;;;;;;;;5013537;28;20065;-39
2023/01/26 03:38:43;;;;;;;1.02;0.95;;;;;;;;;;5013367;28;20046;-39
2023/01/26 03:57:33;;;;;;;4.63;2.63;;;;;;;;;;5012851;28;20052;-39
2023/01/26 03:59:59;;;;;;;4.43;2.13;;;;;;;;;;5014152;28;20108;-39
2023/01/26 04:10:45;;;;;;;7.68;1.67;;;;;;;;;;5012699;28;20068;-39
2023/01/26 04:21:29;;;;;;;2.60;1.55;;;;;;;;;;5012618;28;20087;-39
2023/01/26 04:23:56;;;;;;;3.33;2.58;;;;;;;;;;5012646;28;20026;-40
2023/01/26 04:26:26;;;;;;;3.00;1.70;;;;;;;;;;5013797;28;20073;-39
2023/01/26 04:28:53;;;;;;;3.42;2.60;;;;;;;;;;5012591;28;20049;-39
2023/01/26 04:31:18;;;;;;;3.83;2.25;;;;;;;;;;5012456;28;20104;-39
2023/01/26 04:33:47;;;;;;;3.17;1.58;;;;;;;;;;5012329;28;20136;-39
2023/01/26 04:36:13;;;;;;;2.50;1.55;;;;;;;;;;5012391;28;20170;-40
2023/01/26 04:38:43;;;;;;;4.80;2.85;;;;;;;;;;5012284;28;20616;-39
2023/01/26 04:41:08;;;;;;;4.18;2.85;;;;;;;;;;5012215;28;20026;-39
2023/01/26 04:43:41;;;;;;;2.78;2.22;;;;;;;;;;5012206;28;20052;-39
2023/01/26 04:46:06;;;;;;;1.15;1.05;;;;;;;;;;5012141;28;20141;-39
2023/01/26 04:48:34;;;;;;;6.18;2.58;;;;;;;;;;5012012;28;20068;-39
2023/01/26 04:51:00;;;;;;;5.53;2.35;;;;;;;;;;5012113;28;20380;-39
2023/01/26 04:53:26;;;;;;;1.45;1.30;;;;;;;;;;5012076;28;20407;-39
2023/01/26 04:55:52;;;;;;;3.80;2.20;;;;;;;;;;5011959;28;20160;-39
2023/01/26 04:58:17;;;;;;;3.03;1.98;;;;;;;;;;5013188;28;20045;-39
2023/01/26 05:00:43;;;;;;;3.22;1.05;;;;;;;;;;5011784;28;20088;-39
2023/01/26 05:03:08;;;;;;;5.80;1.88;;;;;;;;;;5011821;28;20079;-39
2023/01/26 05:05:37;;;;;;;5.25;2.70;;;;;;;;;;5013167;28;20044;-39
2023/01/26 05:08:04;;;;;;;4.45;1.35;;;;;;;;;;5011850;28;20022;-39
2023/01/26 05:10:31;;;;;;;1.25;1.05;;;;;;;;;;5011598;28;20038;-39
2023/01/26 05:13:15;;;;;;;3.70;2.33;;;;;;;;;;5012768;28;20029;-39
2023/01/26 05:16:01;;;;;;;6.07;2.10;;;;;;;;;;5012892;28;20037;-39
2023/01/26 05:18:45;;;;;;;3.80;2.55;;;;;;;;;;5012928;28;20048;-39
2023/01/26 05:21:31;;;;;;;4.07;2.13;;;;;;;;;;5012494;28;20034;-39
2023/01/26 05:23:56;;;;;;;3.42;1.75;;;;;;;;;;5011410;28;20060;-39
2023/01/26 05:26:40;;;;;;;1.70;1.60;;;;;;;;;;5013000;28;20036;-39
2023/01/26 05:29:11;;;;;;;5.55;2.35;;;;;;;;;;5011443;28;20468;-39
2023/01/26 05:31:36;;;;;;;2.80;2.05;;;;;;;;;;5012432;28;20037;-39
2023/01/26 05:34:02;;;;;;;5.70;2.42;;;;;;;;;;5012688;28;20029;-39
2023/01/26 05:36:28;;;;;;;5.70;1.38;;;;;;;;;;5011273;28;20033;-39
2023/01/26 05:38:55;;;;;;;1.05;1.05;;;;;;;;;;5011264;28;20490;-39
2023/01/26 05:41:24;;;;;;;6.15;2.85;;;;;;;;;;5011162;28;20037;-39
2023/01/26 05:44:08;;;;;;;2.80;2.00;;;;;;;;;;5012745;28;20075;-39
2023/01/26 05:46:42;;;;;;;1.65;0.98;;;;;;;;;;5012556;28;20065;-39
2023/01/26 05:49:07;;;;;;;0.82;0.82;;;;;;;;;;5011174;28;20038;-39
2023/01/26 05:51:33;;;;;;;3.08;1.70;;;;;;;;;;5010985;28;20364;-39
2023/01/26 05:53:58;;;;;;;3.05;1.63;;;;;;;;;;5011022;28;20304;-39
2023/01/26 05:56:24;;;;;;;3.95;2.38;;;;;;;;;;5012396;28;20013;-40
2023/01/26 05:58:55;;;;;;;1.45;0.95;;;;;;;;;;5010872;28;20030;-39
2023/01/26 06:01:20;;;;;;;2.65;2.08;;;;;;;;;;5010813;28;20392;-39
2023/01/26 06:03:53;;;;;;;;;;;;;;;;;;5011261;28;20100;-39
2023/01/26 06:06:18;;;;;;;1.50;0.77;;;;;;;;;;5010651;28;19983;-39
2023/01/26 06:08:51;;;;;;;4.68;1.02;;;;;;;;;;5010734;28;20431;-39
2023/01/26 06:11:37;;;;;;;2.25;1.67;;;;;;;;;;5011653;28;20048;-39
2023/01/26 06:14:21;;;;;;;1.08;0.85;;;;;;;;;;5011964;28;20105;-39
2023/01/26 06:16:46;;;;;;;5.68;2.75;;;;;;;;;;5010590;28;20177;-39
2023/01/26 06:19:12;;;;;;;1.17;1.05;;;;;;;;;;5010730;28;20065;-39
2023/01/26 06:21:39;;;;;;;2.50;1.65;;;;;;;;;;5010460;28;20060;-39
2023/01/26 06:24:05;;;;;;;4.93;1.67;;;;;;;;;;5009722;28;20022;-39
2023/01/26 06:26:30;;;;;;;3.03;1.88;;;;;;;;;;5010386;28;20042;-39
2023/01/26 06:28:57;;;;;;;1.90;0.73;;;;;;;;;;5010450;28;20014;-39
2023/01/26 06:31:28;;;;;;;3.30;1.70;;;;;;;;;;5010446;28;20104;-39
2023/01/26 06:33:55;;;;;;;7.15;1.92;;;;;;;;;;5010542;28;20041;-39
2023/01/26 06:36:21;;;;;;;4.07;2.17;;;;;;;;;;5010230;28;20018;-39
2023/01/26 06:38:48;;;;;;;3.72;1.85;;;;;;;;;;5010142;28;20036;-39
2023/01/26 06:41:15;;;;;;;4.00;2.33;;;;;;;;;;5010272;28;20022;-39
2023/01/26 06:43:44;;;;;;;4.43;2.15;;;;;;;;;;5010028;28;20042;-39
2023/01/26 06:46:09;;;;;;;2.25;1.35;;;;;;;;;;5011778;28;20034;-39
2023/01/26 06:48:36;;;;;;;1.73;1.13;;;;;;;;;;5010228;28;20068;-39
2023/01/26 06:51:23;;;;;;;4.30;2.60;;;;;;;;;;5010199;28;20066;-39
2023/01/26 06:53:51;;;;;;;2.53;2.00;;;;;;;;;;5005869;28;20499;-40
2023/01/26 06:56:52;;;;;;;2.78;1.88;;;;;;;;;;4969731;28;20058;-39
2023/01/26 06:59:36;;;;;;;3.85;2.33;;;;;;;;;;5008492;28;20072;-39
2023/01/26 07:02:05;;;;;;;2.55;1.40;;;;;;;;;;5011486;28;20041;-39
2023/01/26 07:04:31;;;;;;;1.17;0.90;;;;;;;;;;5011348;28;20026;-39
2023/01/26 07:06:56;;;;;;;3.38;1.88;;;;;;;;;;5011658;28;20046;-39
2023/01/26 07:09:21;;;;;;;4.82;1.88;;;;;;;;;;5011384;28;20045;-39
2023/01/26 07:11:47;;;;;;;3.20;2.03;;;;;;;;;;5011266;28;20626;-38
2023/01/26 07:14:12;;;;;;;3.75;1.83;;;;;;;;;;5010227;28;20033;-38
2023/01/26 07:16:37;;;;;;;5.32;1.95;;;;;;;;;;5011217;28;20030;-39
2023/01/26 07:19:03;;;;;;;4.35;1.77;;;;;;;;;;5009970;28;20030;-38
2023/01/26 07:21:28;;;;;;;2.47;1.60;;;;;;;;;;5011512;28;20044;-39
2023/01/26 07:23:54;;;;;;;2.90;1.55;;;;;;;;;;5011173;28;20464;-39
2023/01/26 07:26:20;;;;;;;3.55;2.17;;;;;;;;;;5011129;28;20080;-39
2023/01/26 07:28:45;;;;;;;1.60;1.48;;;;;;;;;;5011438;28;20065;-39
2023/01/26 07:31:11;;;;;;;1.73;1.15;;;;;;;;;;5011114;28;20033;-39
2023/01/26 07:33:37;;;;;;;3.50;2.10;;;;;;;;;;5011137;28;20014;-39
2023/01/26 07:36:03;;;;;;;2.90;2.10;;;;;;;;;;5013813;28;20116;-39
2023/01/26 07:38:28;;;;;;;3.83;2.42;;;;;;;;;;5015132;28;20080;-39
2023/01/26 07:40:54;;;;;;;2.25;2.05;;;;;;;;;;5014592;28;20034;-39
2023/01/26 07:43:20;;;;;;;2.05;1.55;;;;;;;;;;5014831;28;20089;-39
2023/01/26 07:45:51;;;;;;;1.48;1.27;;;;;;;;;;5014696;28;20381;-39
2023/01/26 07:48:17;;;;;;;2.00;1.38;;;;;;;;;;5014654;28;20018;-39
2023/01/26 07:50:44;;;;;;;2.08;1.40;;;;;;;;;;5014451;28;20022;-38
2023/01/26 07:53:11;;;;;;;1.55;1.23;;;;;;;;;;5014502;28;20041;-39
2023/01/26 07:55:37;;;;;;;3.60;1.40;;;;;;;;;;5014363;28;20049;-39
2023/01/26 07:58:02;;;;;;;1.52;0.90;;;;;;;;;;5014325;28;20794;-39
2023/01/26 08:00:28;;;;;;;2.95;1.85;;;;;;;;;;5013340;28;20034;-39
2023/01/26 08:02:53;;;;;;;3.40;1.88;;;;;;;;;;5014259;28;20041;-39
2023/01/26 08:05:19;;;;;;;10.35;2.90;;;;;;;;;;5014220;28;20042;-39
2023/01/26 08:07:44;;;;;;;2.47;2.28;;;;;;;;;;5014108;28;20030;-39
2023/01/26 08:10:11;;;;;;;1.92;1.83;;;;;;;;;;5014218;28;20467;-39
2023/01/26 08:12:36;;;;;;;3.10;2.42;;;;;;;;;;5014101;28;20547;-39
2023/01/26 08:15:02;;;;;;;4.18;1.65;;;;;;;;;;5014110;28;20117;-39
2023/01/26 08:17:28;;;;;;;1.30;1.15;;;;;;;;;;5014284;28;20040;-39
2023/01/26 08:19:53;;;;;;;1.52;0.95;;;;;;;;;;4996276;28;20029;-39
2023/01/26 08:22:19;;;;;;;8.27;2.33;;;;;;;;;;5014167;28;20030;-42
2023/01/26 08:24:44;;;;;;;4.38;2.08;;;;;;;;;;5013729;28;20034;-39
2023/01/26 08:27:09;;;;;;;5.05;2.10;;;;;;;;;;5013805;28;20040;-39
2023/01/26 08:29:35;;;;;;;3.28;1.67;;;;;;;;;;5013614;28;20022;-39
2023/01/26 08:32:00;;;;;;;4.30;2.70;;;;;;;;;;5014017;28;20033;-39
2023/01/26 08:34:26;;;;;;;4.90;3.03;;;;;;;;;;5013998;28;20021;-39
2023/01/26 08:36:51;;;;;;;5.10;2.00;;;;;;;;;;5013551;28;20444;-39
2023/01/26 08:39:16;;;;;;;2.20;1.38;;;;;;;;;;5013619;28;20456;-40
2023/01/26 08:41:42;;;;;;;3.85;1.67;;;;;;;;;;5013631;28;20040;-39
2023/01/26 08:44:08;;;;;;;4.93;2.53;;;;;;;;;;5013737;28;20352;-39
2023/01/26 08:46:34;;;;;;;4.53;2.45;;;;;;;;;;5012395;28;20487;-39
2023/01/26 08:48:59;;;;;;;3.95;1.90;;;;;;;;;;5013480;28;20033;-39
2023/01/26 08:51:25;;;;;;;5.63;2.38;;;;;;;;;;5013500;28;20312;-40
2023/01/26 08:53:53;;;;;;;2.47;2.17;;;;;;;;;;5013542;28;20030;-39
2023/01/26 08:56:19;;;;;;;2.63;1.17;;;;;;;;;;5013388;28;20083;-39
2023/01/26 08:58:45;;;;;;;3.63;2.22;;;;;;;;;;5013025;28;20053;-39
2023/01/26 09:01:11;;;;;;;2.90;2.30;;;;;;;;;;5013251;28;20112;-39
2023/01/26 09:03:36;;;;;;;5.13;2.35;;;;;;;;;;5013169;28;20014;-39
2023/01/26 09:06:03;;;;;;;4.22;1.77;;;;;;;;;;5013055;28;20046;-39
2023/01/26 09:08:28;;;;;;;4.15;2.67;;;;;;;;;;5013401;28;20108;-39
2023/01/26 09:10:54;;;;;;;4.20;2.50;;;;;;;;;;5012915;28;20118;-39
2023/01/26 09:13:19;;;;;;;4.05;2.13;;;;;;;;;;5012992;28;20020;-38
2023/01/26 09:15:44;;;;;;;4.55;1.50;;;;;;;;;;5012830;28;20084;-39
2023/01/26 09:18:10;;;;;;;4.57;2.10;;;;;;;;;;5013003;28;20014;-39
2023/01/26 09:20:39;;;;;;;7.15;1.80;;;;;;;;;;5012776;28;20068;-39
2023/01/26 09:23:05;;;;;;;6.15;1.67;;;;;;;;;;5013120;28;20045;-39
2023/01/26 09:25:30;;;;;;;6.50;1.90;;;;;;;;;;5012971;28;20455;-39
2023/01/26 09:27:56;;;;;;;3.83;2.42;;;;;;;;;;5012653;28;20109;-38
2023/01/26 09:30:23;;;;;;;3.45;2.25;;;;;;;;;;5012922;28;20045;-39
2023/01/26 09:32:49;;;;;;;2.10;1.95;;;;;;;;;;5012609;28;20022;-39
2023/01/26 09:35:15;;;;;;;2.60;1.70;;;;;;;;;;5012665;28;20041;-38
2023/01/26 09:37:42;;;;;;;1.95;1.48;;;;;;;;;;5012778;28;20049;-39
2023/01/26 09:40:13;;;;;;;3.95;1.60;;;;;;;;;;5012542;28;20033;-38
2023/01/26 09:45:06;;;;;;;3.45;1.20;;;;;;;;;;5036413;28;20053;-39
2023/01/26 09:47:44;;;;;;;3.92;2.08;;;;;;;;;;5052310;28;20029;-39
2023/01/26 09:50:12;;;;;;;4.13;2.75;;;;;;;;;;5051866;28;20045;-39
2023/01/26 09:52:43;;;;;;;4.10;2.08;;;;;;;;;;5052256;28;20025;-39
2023/01/26 09:55:13;;;;;;;2.35;1.33;;;;;;;;;;5051869;28;20112;-39
2023/01/26 09:57:41;;;;;;;5.32;2.55;;;;;;;;;;5051682;28;20475;-39
2023/01/26 10:00:20;;;;;;;8.75;2.75;;;;;;;;;;5051691;28;20069;-39
2023/01/26 10:02:48;;;;;;;2.40;1.23;;;;;;;;;;5051867;28;20033;-38
2023/01/26 10:05:19;;;;;;;3.72;2.55;;;;;;;;;;5051545;28;20444;-39
2023/01/26 10:07:44;;;;;;;5.40;2.72;;;;;;;;;;5051718;28;20074;-38
2023/01/26 10:10:24;;;;;;;4.07;2.60;;;;;;;;;;5051605;28;20379;-39
2023/01/26 10:12:50;;;;;;;1.38;1.00;;;;;;;;;;5051970;28;20029;-39
2023/01/26 10:15:30;;;;;;;7.40;2.70;;;;;;;;;;5051439;28;20043;-38
2023/01/26 10:17:58;;;;;;;3.63;1.95;;;;;;;;;;5051589;28;20471;-39
2023/01/26 10:20:44;;;;;;;3.47;2.42;;;;;;;;;;5051196;28;20063;-39
2023/01/26 10:23:21;;;;;;;2.83;2.15;;;;;;;;;;5051514;28;20090;-39
2023/01/26 10:25:46;;;;;;;4.30;2.17;;;;;;;;;;5051282;28;20033;-39
2023/01/26 10:28:13;;;;;;;6.00;2.30;;;;;;;;;;5051368;28;20143;-39
2023/01/26 10:30:39;;;;;;;4.93;2.70;;;;;;;;;;5051476;28;20486;-39
2023/01/26 10:33:11;;;;;;;6.13;2.22;;;;;;;;;;5051344;28;20074;-39
2023/01/26 10:35:36;;;;;;;4.80;1.98;;;;;;;;;;5051380;28;20037;-39
2023/01/26 10:38:02;;;;;;;3.80;1.80;;;;;;;;;;5051671;28;20033;-39
2023/01/26 10:40:27;;;;;;;5.47;2.83;;;;;;;;;;5033359;28;20040;-39
2023/01/26 10:42:56;;;;;;;3.95;2.47;;;;;;;;;;5055378;28;20362;-39
2023/01/26 10:45:22;;;;;;;4.13;2.55;;;;;;;;;;5070957;28;20521;-39
2023/01/26 10:48:06;;;;;;;7.00;2.67;;;;;;;;;;5053348;28;20084;-39
2023/01/26 10:50:32;;;;;;;2.58;2.15;;;;;;;;;;5053375;28;20059;-39
2023/01/26 10:52:58;;;;;;;3.75;1.85;;;;;;;;;;5071213;28;20470;-39
2023/01/26 10:55:24;;;;;;;2.58;1.48;;;;;;;;;;5052934;28;20484;-39
2023/01/26 10:57:49;;;;;;;6.10;2.92;;;;;;;;;;5071487;28;20064;-40
2023/01/26 11:00:18;;;;;;;6.90;2.83;;;;;;;;;;5071028;28;20489;-39
2023/01/26 11:02:48;;;;;;;6.25;2.20;;;;;;;;;;5071315;28;20020;-43
2023/01/26 11:05:17;;;;;;;1.73;1.27;;;;;;;;;;5070936;28;20043;-39
2023/01/26 11:07:44;;;;;;;4.82;2.92;;;;;;;;;;5071281;28;20108;-39
2023/01/26 11:10:18;;;;;;;0.77;0.75;;;;;;;;;;5072257;28;20040;-39
2023/01/26 11:12:44;;;;;;;3.50;1.88;;;;;;;;;;5075291;28;20485;-39
2023/01/26 11:15:20;;;;;;;6.68;1.92;;;;;;;;;;5075057;28;20044;-39
2023/01/26 11:17:45;;;;;;;3.65;2.50;;;;;;;;;;5075168;28;20020;-39
2023/01/26 11:20:40;;;;;;;1.55;1.05;;;;;;;;;;5074736;28;20496;-39
2023/01/26 11:23:21;;;;;;;2.47;2.03;;;;;;;;;;4985637;28;20045;-39
2023/01/26 11:25:46;;;;;;;2.28;1.95;;;;;;;;;;5074612;28;20474;-39
2023/01/26 11:28:18;;;;;;;4.55;2.22;;;;;;;;;;5056680;28;20028;-39
2023/01/26 11:30:43;;;;;;;4.07;2.25;;;;;;;;;;5074790;28;20024;-39
2023/01/26 11:33:11;;;;;;;5.63;2.28;;;;;;;;;;5074527;28;20017;-39
2023/01/26 11:35:46;;;;;;;3.55;2.45;;;;;;;;;;5074494;28;20504;-39
2023/01/26 11:38:20;;;;;;;1.75;1.30;;;;;;;;;;5074389;28;20386;-39
2023/01/26 11:40:45;;;;;;;6.25;2.63;;;;;;;;;;5074827;28;20115;-39
2023/01/26 11:43:14;;;;;;;6.53;1.95;;;;;;;;;;5075076;28;20103;-39
2023/01/26 11:45:58;;;;;;;3.63;2.38;;;;;;;;;;5074509;28;20066;-39
2023/01/26 11:48:30;;;;;;;2.95;2.38;;;;;;;;;;5074719;28;20600;-39
2023/01/26 11:50:55;;;;;;;1.15;1.05;;;;;;;;;;5074846;28;20033;-38
2023/01/26 11:53:36;;;;;;;6.90;1.65;;;;;;;;;;5074645;28;20018;-39
2023/01/26 11:56:20;;;;;;;4.93;3.28;;;;;;;;;;5074862;28;20112;-39
2023/01/26 11:58:48;;;;;;;3.13;1.92;;;;;;;;;;5074558;28;20085;-39
2023/01/26 12:01:21;;;;;;;1.77;1.52;;;;;;;;;;5074559;28;20036;-39
2023/01/26 12:03:48;;;;;;;4.45;2.50;;;;;;;;;;5074901;28;20060;-39
2023/01/26 12:06:18;;;;;;;6.55;2.92;;;;;;;;;;5074229;28;20073;-39
2023/01/26 12:08:43;;;;;;;3.60;1.67;;;;;;;;;;5074736;28;20389;-38
2023/01/26 12:11:21;;;;;;;2.42;1.25;;;;;;;;;;5074582;28;20028;-38
2023/01/26 12:13:53;;;;;;;4.47;2.35;;;;;;;;;;5074338;28;20060;-39
2023/01/26 12:16:31;;;;;;;7.47;1.15;;;;;;;;;;5074165;28;20672;-39
2023/01/26 12:19:08;;;;;;;4.85;2.40;;;;;;;;;;5074506;28;20032;-39
2023/01/26 12:21:36;;;;;;;3.13;1.95;;;;;;;;;;5074409;28;20039;-39
2023/01/26 12:24:02;;;;;;;1.90;1.63;;;;;;;;;;5073868;28;20378;-39
2023/01/26 12:26:31;;;;;;;1.85;1.65;;;;;;;;;;5073387;28;20041;-38
2023/01/26 12:29:08;;;;;;;5.10;2.28;;;;;;;;;;5073763;28;20032;-39
2023/01/26 12:31:52;;;;;;;3.42;1.50;;;;;;;;;;5073549;28;20040;-39
2023/01/26 12:34:20;;;;;;;4.97;1.50;;;;;;;;;;5073435;28;20036;-39
2023/01/26 12:36:57;;;;;;;8.05;2.55;;;;;;;;;;5073632;28;20025;-39
2023/01/26 12:39:23;;;;;;;5.35;1.88;;;;;;;;;;5055339;28;20063;-39
2023/01/26 12:42:00;;;;;;;6.50;2.28;;;;;;;;;;5073271;28;20040;-39
2023/01/26 12:44:44;;;;;;;8.90;2.42;;;;;;;;;;5073128;28;20036;-39
2023/01/26 12:47:22;;;;;;;3.70;1.38;;;;;;;;;;5073204;28;20061;-39
2023/01/26 12:49:48;;;;;;;3.20;2.38;;;;;;;;;;5073391;28;20024;-39
2023/01/26 12:52:13;;;;;;;3.42;2.05;;;;;;;;;;5073014;28;20529;-39
2023/01/26 12:54:39;;;;;;;5.20;1.95;;;;;;;;;;5073016;28;20078;-38
2023/01/26 12:57:06;;;;;;;2.85;2.08;;;;;;;;;;5073011;28;20012;-39
2023/01/26 12:59:36;;;;;;;7.18;2.33;;;;;;;;;;5073158;28;20103;-39
2023/01/26 13:02:14;;;;;;;2.90;1.52;;;;;;;;;;5072945;28;20024;-38
2023/01/26 13:04:39;;;;;;;6.28;3.25;;;;;;;;;;5073029;28;20119;-39
2023/01/26 13:07:24;;;;;;;3.33;1.58;;;;;;;;;;5072805;28;20645;-38
2023/01/26 13:10:09;;;;;;;2.20;1.55;;;;;;;;;;5054747;28;20517;-39
2023/01/26 13:12:48;;;;;;;2.60;1.67;;;;;;;;;;5072724;28;20497;-39
2023/01/26 13:15:16;;;;;;;5.88;2.92;;;;;;;;;;5072837;28;20056;-39
2023/01/26 13:17:48;;;;;;;2.88;1.52;;;;;;;;;;5072622;28;20013;-39
2023/01/26 13:20:20;;;;;;;3.40;2.33;;;;;;;;;;5072768;28;20090;-39
2023/01/26 13:22:46;;;;;;;5.20;2.17;;;;;;;;;;5054595;28;20494;-39
2023/01/26 13:25:13;;;;;;;6.47;2.40;;;;;;;;;;5072183;28;20074;-39
2023/01/26 13:27:38;;;;;;;8.18;2.67;;;;;;;;;;5072465;28;20642;-39
2023/01/26 13:30:33;;;;;;;2.63;1.80;;;;;;;;;;5072638;28;20056;-39
2023/01/26 13:33:22;;;;;;;4.00;2.90;;;;;;;;;;5050448;28;20549;-39
2023/01/26 13:35:49;;;;;;;2.00;1.02;;;;;;;;;;5059115;28;20072;-39
2023/01/26 13:38:21;;;;;;;5.00;2.63;;;;;;;;;;5054030;28;20025;-39
2023/01/26 13:40:49;;;;;;;4.75;2.40;;;;;;;;;;5072435;28;20403;-39
2023/01/26 13:43:14;;;;;;;5.55;2.78;;;;;;;;;;5072079;28;20016;-39
2023/01/26 13:45:40;;;;;;;3.35;2.58;;;;;;;;;;5071730;28;20398;-39
2023/01/26 13:48:10;;;;;;;3.83;1.92;;;;;;;;;;5072040;28;20078;-38
2023/01/26 13:50:39;;;;;;;4.07;2.00;;;;;;;;;;5072065;28;20029;-38
2023/01/26 13:53:37;;;;;;;8.88;2.97;;;;;;;;;;5071913;28;20078;-39
2023/01/26 13:56:06;;;;;;;4.68;2.55;;;;;;;;;;5016504;28;20473;-38
2023/01/26 13:58:32;;;;;;;6.40;2.50;;;;;;;;;;5071745;28;20052;-39
2023/01/26 14:00:58;;;;;;;7.00;2.38;;;;;;;;;;5071735;28;20028;-39
2023/01/26 14:03:24;;;;;;;7.88;3.05;;;;;;;;;;5071735;28;20028;-39
2023/01/26 14:06:07;;;;;;;3.97;2.55;;;;;;;;;;5053841;28;20044;-39
2023/01/26 14:08:33;;;;;;;1.42;1.33;;;;;;;;;;5071775;28;20126;-39
2023/01/26 14:11:01;;;;;;;4.47;3.03;;;;;;;;;;5071702;28;20031;-39
2023/01/26 14:13:31;;;;;;;4.55;3.03;;;;;;;;;;5071498;28;20021;-39
2023/01/26 14:15:58;;;;;;;4.53;2.30;;;;;;;;;;5071653;28;20385;-39
2023/01/26 14:18:25;;;;;;;1.40;1.05;;;;;;;;;;5053643;28;20028;-39
2023/01/26 14:20:57;;;;;;;4.97;2.80;;;;;;;;;;5071440;28;20033;-39
2023/01/26 14:23:26;;;;;;;4.45;2.38;;;;;;;;;;5071759;28;20029;-40
2023/01/26 14:25:59;;;;;;;5.45;1.33;;;;;;;;;;5071630;28;20040;-39
2023/01/26 14:28:27;;;;;;;4.88;2.72;;;;;;;;;;5071328;28;20075;-39
2023/01/26 14:30:56;;;;;;;4.65;2.03;;;;;;;;;;5071481;28;20030;-39
2023/01/26 14:33:22;;;;;;;2.05;1.73;;;;;;;;;;5071378;28;20432;-39
2023/01/26 14:35:56;;;;;;;6.07;2.90;;;;;;;;;;5053620;28;20016;-39
2023/01/26 14:38:22;;;;;;;4.28;2.83;;;;;;;;;;5071266;28;20028;-39
2023/01/26 14:40:52;;;;;;;2.65;1.73;;;;;;;;;;5071391;28;20100;-38
2023/01/26 14:43:18;;;;;;;1.70;1.60;;;;;;;;;;5071459;28;20036;-39
2023/01/26 14:46:06;;;;;;;2.30;1.30;;;;;;;;;;5070217;28;20508;-38
2023/01/26 14:48:35;;;;;;;5.25;2.30;;;;;;;;;;5053200;28;20493;-39
2023/01/26 14:51:05;;;;;;;1.55;0.95;;;;;;;;;;5071181;28;20032;-39
2023/01/26 14:53:31;;;;;;;3.58;2.08;;;;;;;;;;5071216;28;20036;-39
2023/01/26 14:55:57;;;;;;;4.65;2.20;;;;;;;;;;5071296;28;20029;-39
2023/01/26 14:58:24;;;;;;;2.95;1.83;;;;;;;;;;5071352;28;20056;-39
2023/01/26 15:00:50;;;;;;;3.80;2.00;;;;;;;;;;5071193;28;20073;-39
2023/01/26 15:03:21;;;;;;;4.55;1.90;;;;;;;;;;5071035;28;20059;-39
2023/01/26 15:05:47;;;;;;;2.70;2.17;;;;;;;;;;5053140;28;20036;-38
2023/01/26 15:08:23;;;;;;;1.77;0.77;;;;;;;;;;5053065;28;20039;-38
2023/01/26 15:10:53;;;;;;;4.85;2.75;;;;;;;;;;5071269;28;20028;-39
2023/01/26 15:13:30;;;;;;;1.02;0.73;;;;;;;;;;5071255;28;20032;-39
2023/01/26 15:16:03;;;;;;;7.93;2.17;;;;;;;;;;5071049;28;20029;-39
2023/01/26 15:18:30;;;;;;;6.97;2.72;;;;;;;;;;5052214;28;20033;-38
2023/01/26 15:21:04;;;;;;;3.60;1.88;;;;;;;;;;5070991;28;20025;-38
2023/01/26 15:23:30;;;;;;;2.63;1.55;;;;;;;;;;5070880;28;20041;-39
2023/01/26 15:26:03;;;;;;;4.18;2.88;;;;;;;;;;5070768;28;20028;-39
2023/01/26 15:28:29;;;;;;;1.92;1.50;;;;;;;;;;5070898;28;20104;-38
2023/01/26 15:30:55;;;;;;;0.77;0.77;;;;;;;;;;5070908;28;20171;-39
2023/01/26 15:33:37;;;;;;;3.97;2.45;;;;;;;;;;5053213;28;20036;-39
2023/01/26 15:36:03;;;;;;;3.17;1.67;;;;;;;;;;5070861;28;20021;-39
2023/01/26 15:38:29;;;;;;;3.20;1.90;;;;;;;;;;5070742;28;20016;-39
2023/01/26 15:40:55;;;;;;;4.18;2.03;;;;;;;;;;5070788;28;20386;-39
2023/01/26 15:43:21;;;;;;;5.28;2.33;;;;;;;;;;5036154;28;20385;-39